Flowery Branch, Georgia
Current Conditions -  °F | °C
As of 3:53 PM on Sunday 21 Dec 2014 (Local Time) from KGVL Reporting Station
Overcast Overcast  
Wind Chill: 43°   Ceiling: 1400
Heat Index: 48°   Visibility: 9mi
Dew Point: 42°   Wind: 10mph
Humidity: 80%   Direction: 80°E
Pressure: 30.13"   Gusts: NA
Location:  34.19°N, 83.93°W
Report Text: KGVL 212053Z AUTO 08009KT 9SM OVC014 09/06 A3013 RMK AO2 SLP203 T00890056 55016
Loading
Personal Weather Stations






























Interactive Weather Map New forecast layout! Learn more

10-Day Weather Forecast

Advertisements
Track Severe Weather on mobile